createdAt,value
2018-03-06T00:01:44.629Z,5.70
2018-03-06T00:04:11.077Z,5.58
2018-03-06T00:06:37.770Z,5.70
2018-03-06T00:09:04.250Z,5.72
2018-03-06T00:11:30.713Z,5.75
2018-03-06T00:13:57.174Z,5.63
2018-03-06T00:16:23.573Z,5.71
2018-03-06T00:18:49.988Z,5.60
2018-03-06T00:21:16.498Z,5.66
2018-03-06T00:23:42.901Z,5.73
2018-03-06T00:26:09.294Z,5.76
2018-03-06T00:28:35.743Z,5.80
2018-03-06T00:31:02.136Z,5.78
2018-03-06T00:33:28.513Z,5.80
2018-03-06T00:35:54.938Z,5.85
2018-03-06T00:38:21.328Z,5.88
2018-03-06T00:40:47.703Z,5.83
2018-03-06T00:43:14.107Z,5.68
2018-03-06T00:45:40.593Z,5.77
2018-03-06T00:48:06.965Z,5.83
2018-03-06T00:50:33.311Z,5.85
2018-03-06T00:52:59.698Z,5.79
2018-03-06T00:55:26.055Z,5.82
2018-03-06T00:57:52.430Z,5.74
2018-03-06T01:00:18.822Z,5.82
2018-03-06T01:02:45.225Z,5.84
2018-03-06T01:05:11.670Z,5.88
2018-03-06T01:07:38.033Z,5.89
2018-03-06T01:10:04.510Z,5.89
2018-03-06T01:12:31.060Z,5.88
2018-03-06T01:14:57.461Z,5.93
2018-03-06T01:17:23.893Z,5.86
2018-03-06T01:19:50.280Z,5.94
2018-03-06T01:22:16.658Z,5.89
2018-03-06T01:24:43.022Z,5.94
2018-03-06T01:27:09.425Z,5.88
2018-03-06T01:29:35.880Z,5.89
2018-03-06T01:32:02.333Z,5.88
2018-03-06T01:34:28.741Z,5.89
2018-03-06T01:36:55.141Z,5.84
2018-03-06T01:39:21.485Z,5.87
2018-03-06T01:41:47.897Z,5.88
2018-03-06T01:44:14.285Z,5.85
2018-03-06T01:46:40.666Z,5.81
2018-03-06T01:49:07.117Z,5.74
2018-03-06T01:51:45.774Z,5.70
2018-03-06T01:54:12.305Z,5.73
2018-03-06T01:56:38.698Z,5.76
2018-03-06T01:59:05.058Z,5.51
2018-03-06T02:01:31.514Z,5.55
2018-03-06T02:03:57.974Z,5.46
2018-03-06T02:06:24.402Z,5.39
2018-03-06T02:08:50.822Z,5.46
2018-03-06T02:11:17.225Z,5.48
2018-03-06T02:13:43.641Z,5.47
2018-03-06T02:16:10.091Z,5.48
2018-03-06T02:18:36.494Z,5.52
2018-03-06T02:21:02.890Z,5.57
2018-03-06T02:23:29.347Z,5.63
2018-03-06T02:25:55.809Z,5.64
2018-03-06T02:28:22.157Z,5.65
2018-03-06T02:30:48.646Z,5.64
2018-03-06T02:33:15.102Z,5.63
2018-03-06T02:35:41.478Z,5.63
2018-03-06T02:38:08.026Z,5.68
2018-03-06T02:40:34.427Z,5.66
2018-03-06T02:43:00.836Z,5.58
2018-03-06T02:45:27.335Z,5.50
2018-03-06T02:47:53.745Z,5.63
2018-03-06T02:50:20.133Z,5.61
2018-03-06T02:52:46.534Z,5.66
2018-03-06T02:55:12.922Z,5.62
2018-03-06T02:57:39.389Z,5.62
2018-03-06T03:00:05.877Z,5.69
2018-03-06T03:02:32.294Z,5.61
2018-03-06T03:04:58.642Z,5.54
2018-03-06T03:07:25.118Z,5.64
2018-03-06T03:09:51.501Z,5.66
2018-03-06T03:12:17.926Z,5.67
2018-03-06T03:14:44.367Z,5.70
2018-03-06T03:17:10.817Z,5.45
2018-03-06T03:19:37.240Z,5.50
2018-03-06T03:22:03.709Z,5.47
2018-03-06T03:24:30.206Z,5.48
2018-03-06T03:26:56.593Z,5.26
2018-03-06T03:29:23.017Z,5.29
2018-03-06T03:31:49.434Z,5.25
2018-03-06T03:34:15.817Z,5.16
2018-03-06T03:36:42.266Z,5.06
2018-03-06T03:39:08.672Z,5.05
2018-03-06T03:41:35.113Z,5.09
2018-03-06T03:44:01.582Z,5.15
2018-03-06T03:46:28.076Z,5.02
2018-03-06T03:48:54.497Z,5.03
2018-03-06T03:51:21.143Z,5.07
2018-03-06T03:53:47.519Z,5.14
2018-03-06T03:56:13.922Z,4.98
2018-03-06T03:58:40.378Z,4.79
2018-03-06T04:01:06.729Z,4.91
2018-03-06T04:03:33.109Z,5.20
2018-03-06T04:05:59.704Z,5.26
2018-03-06T04:08:26.110Z,5.37
2018-03-06T04:10:52.605Z,5.33
2018-03-06T04:13:19.101Z,5.32
2018-03-06T04:15:45.530Z,5.39
2018-03-06T04:18:11.960Z,5.35
2018-03-06T04:20:38.353Z,5.33
2018-03-06T04:23:04.778Z,5.30
2018-03-06T04:25:31.178Z,5.32
2018-03-06T04:27:57.757Z,5.20
2018-03-06T04:30:24.158Z,5.25
2018-03-06T04:32:50.619Z,5.28
2018-03-06T04:35:17.065Z,5.34
2018-03-06T04:37:43.438Z,5.33
2018-03-06T04:40:09.914Z,5.25
2018-03-06T04:42:36.293Z,5.25
2018-03-06T04:45:02.800Z,5.21
2018-03-06T04:47:29.205Z,5.23
2018-03-06T04:49:55.574Z,5.27
2018-03-06T04:52:21.981Z,5.26
2018-03-06T04:54:48.397Z,5.21
2018-03-06T04:57:14.801Z,5.07
2018-03-06T04:59:41.150Z,5.11
2018-03-06T05:02:07.531Z,5.06
2018-03-06T05:04:33.917Z,5.20
2018-03-06T05:07:00.420Z,5.19
2018-03-06T05:09:27.069Z,5.21
2018-03-06T05:11:53.497Z,5.25
2018-03-06T05:14:19.897Z,5.24
2018-03-06T05:16:46.323Z,5.27
2018-03-06T05:19:12.793Z,5.20
2018-03-06T05:21:39.206Z,5.23
2018-03-06T05:24:05.611Z,5.25
2018-03-06T05:26:32.041Z,5.23
2018-03-06T05:28:58.462Z,5.21
2018-03-06T05:31:24.977Z,5.20
2018-03-06T05:33:51.372Z,5.24
2018-03-06T05:36:17.809Z,5.21
2018-03-06T05:38:44.234Z,5.22
2018-03-06T05:41:10.578Z,5.23
2018-03-06T05:43:36.949Z,5.30
2018-03-06T05:46:03.393Z,5.40
2018-03-06T05:48:29.893Z,5.48
2018-03-06T05:50:56.434Z,5.51
2018-03-06T05:53:22.856Z,5.48
2018-03-06T05:55:49.293Z,5.43
2018-03-06T05:58:16.633Z,5.47
2018-03-06T06:00:43.057Z,5.40
2018-03-06T06:03:09.474Z,5.45
2018-03-06T06:05:35.897Z,5.42
2018-03-06T06:08:02.315Z,5.46
2018-03-06T06:10:28.754Z,5.45
2018-03-06T06:12:55.144Z,5.30
2018-03-06T06:15:21.558Z,5.37
2018-03-06T06:17:48.068Z,5.42
2018-03-06T06:20:14.646Z,5.45
2018-03-06T06:22:41.038Z,5.40
2018-03-06T06:25:07.405Z,5.45
2018-03-06T06:27:33.844Z,5.38
2018-03-06T06:30:00.342Z,5.55
2018-03-06T06:32:26.727Z,5.56
2018-03-06T06:34:53.125Z,5.62
2018-03-06T06:37:19.562Z,5.64
2018-03-06T06:39:45.933Z,5.62
2018-03-06T06:42:12.358Z,5.53
2018-03-06T06:44:38.779Z,5.58
2018-03-06T06:47:05.186Z,5.57
2018-03-06T06:49:31.662Z,5.50
2018-03-06T06:51:58.034Z,5.48
2018-03-06T06:54:24.420Z,5.45
2018-03-06T06:56:50.841Z,5.54
2018-03-06T06:59:17.177Z,5.55
2018-03-06T07:01:43.581Z,5.52
2018-03-06T07:04:09.941Z,5.46
2018-03-06T07:06:36.350Z,5.48
2018-03-06T07:09:02.862Z,5.49
2018-03-06T07:11:29.449Z,5.45
2018-03-06T07:13:55.852Z,5.49
2018-03-06T07:16:22.341Z,5.47
2018-03-06T07:18:48.817Z,5.30
2018-03-06T07:21:15.324Z,5.13
2018-03-06T07:23:41.826Z,5.05
2018-03-06T07:26:08.207Z,5.19
2018-03-06T07:28:34.654Z,5.26
2018-03-06T07:31:01.045Z,5.41
2018-03-06T07:33:27.446Z,5.41
2018-03-06T07:35:53.939Z,5.57
2018-03-06T07:38:20.346Z,5.68
2018-03-06T07:40:46.729Z,5.62
2018-03-06T07:43:13.176Z,5.69
2018-03-06T07:45:39.630Z,5.66
2018-03-06T07:48:06.169Z,5.72
2018-03-06T07:50:32.679Z,5.79
2018-03-06T07:52:59.089Z,5.67
2018-03-06T07:55:25.576Z,5.60
2018-03-06T07:57:51.945Z,5.79
2018-03-06T08:00:18.342Z,5.72
2018-03-06T08:02:44.899Z,5.80
2018-03-06T08:05:11.381Z,5.64
2018-03-06T08:07:37.789Z,5.75
2018-03-06T08:10:04.259Z,5.77
2018-03-06T08:12:30.766Z,5.77
2018-03-06T08:14:57.112Z,5.83
2018-03-06T08:17:23.547Z,5.80
2018-03-06T08:19:49.939Z,5.87
2018-03-06T08:22:16.322Z,5.90
2018-03-06T08:24:42.845Z,5.95
2018-03-06T08:27:09.212Z,5.79
2018-03-06T08:29:35.589Z,5.91
2018-03-06T08:32:02.165Z,5.99
2018-03-06T08:34:28.533Z,6.02
2018-03-06T08:36:54.942Z,5.95
2018-03-06T08:39:21.403Z,5.93
2018-03-06T08:41:47.833Z,6.13
2018-03-06T08:44:14.290Z,6.21
2018-03-06T08:46:40.745Z,6.10
2018-03-06T08:49:07.162Z,6.24
2018-03-06T08:51:33.547Z,6.19
2018-03-06T08:54:00.166Z,6.05
2018-03-06T08:56:26.583Z,6.22
2018-03-06T08:58:52.973Z,5.94
2018-03-06T09:01:19.494Z,6.13
2018-03-06T09:03:45.910Z,6.18
2018-03-06T09:06:12.295Z,6.20
2018-03-06T09:08:38.826Z,6.15
2018-03-06T09:11:05.237Z,6.22
2018-03-06T09:13:31.592Z,6.28
2018-03-06T09:15:58.034Z,6.33
2018-03-06T09:18:25.309Z,6.30
2018-03-06T09:20:51.658Z,6.14
2018-03-06T09:23:18.185Z,6.35
2018-03-06T09:25:44.588Z,6.39
2018-03-06T09:28:11.032Z,6.41
2018-03-06T09:30:37.411Z,6.45
2018-03-06T09:33:03.797Z,6.65
2018-03-06T09:35:30.254Z,6.62
2018-03-06T09:37:56.649Z,6.69
2018-03-06T09:40:23.042Z,6.62
2018-03-06T09:42:49.419Z,6.71
2018-03-06T09:45:15.801Z,6.74
2018-03-06T09:47:42.270Z,6.74
2018-03-06T09:50:08.631Z,6.75
2018-03-06T09:52:34.986Z,6.86
2018-03-06T09:55:01.446Z,6.94
2018-03-06T09:57:27.853Z,6.91
2018-03-06T09:59:54.247Z,6.85
2018-03-06T10:02:20.690Z,6.87
2018-03-06T10:04:47.025Z,7.03
2018-03-06T10:07:13.437Z,7.18
2018-03-06T10:09:39.989Z,7.17
2018-03-06T10:12:06.383Z,7.18
2018-03-06T10:14:32.751Z,7.21
2018-03-06T10:16:59.231Z,7.17
2018-03-06T10:19:25.598Z,7.28
2018-03-06T10:21:51.969Z,7.25
2018-03-06T10:24:18.437Z,7.35
2018-03-06T10:26:44.884Z,7.40
2018-03-06T10:29:11.269Z,7.41
2018-03-06T10:31:37.729Z,7.51
2018-03-06T10:34:04.078Z,7.57
2018-03-06T10:36:30.610Z,7.61
2018-03-06T10:38:57.041Z,7.68
2018-03-06T10:41:23.498Z,7.71
2018-03-06T10:43:49.855Z,7.71
2018-03-06T10:46:16.593Z,7.77
2018-03-06T10:48:43.409Z,7.71
2018-03-06T10:51:09.746Z,7.83
2018-03-06T10:53:36.177Z,7.94
2018-03-06T10:56:02.607Z,8.07
2018-03-06T10:58:29.125Z,8.17
2018-03-06T11:00:55.600Z,8.09
2018-03-06T11:03:22.135Z,8.06
2018-03-06T11:05:48.568Z,7.95
2018-03-06T11:08:15.202Z,8.22
2018-03-06T11:10:41.569Z,8.22
2018-03-06T11:13:07.970Z,8.16
2018-03-06T11:15:34.471Z,8.08
2018-03-06T11:18:00.923Z,8.13
2018-03-06T11:20:27.381Z,8.25
2018-03-06T11:22:53.858Z,8.30
2018-03-06T11:25:20.222Z,8.38
2018-03-06T11:27:46.673Z,8.46
2018-03-06T11:30:13.066Z,8.58
2018-03-06T11:32:39.679Z,8.56
2018-03-06T11:35:06.085Z,8.60
2018-03-06T11:37:32.493Z,8.59
2018-03-06T11:39:58.981Z,8.51
2018-03-06T11:42:26.236Z,8.52
2018-03-06T11:44:52.991Z,8.57
2018-03-06T11:47:19.402Z,8.54
2018-03-06T11:49:45.942Z,8.55
2018-03-06T11:52:12.498Z,8.60
2018-03-06T11:54:38.955Z,8.63
2018-03-06T11:57:05.356Z,8.70
2018-03-06T11:59:31.969Z,8.66
2018-03-06T12:01:58.418Z,8.60
2018-03-06T12:04:24.889Z,8.66
2018-03-06T12:06:51.281Z,8.61
2018-03-06T12:09:17.729Z,8.78
2018-03-06T12:11:44.219Z,8.81
2018-03-06T12:14:10.620Z,8.87
2018-03-06T12:16:37.000Z,8.82
2018-03-06T12:19:03.470Z,8.85
2018-03-06T12:21:29.907Z,8.96
2018-03-06T12:23:56.317Z,8.79
2018-03-06T12:26:22.749Z,8.71
2018-03-06T12:28:49.227Z,8.79
2018-03-06T12:31:15.693Z,8.88
2018-03-06T12:33:42.098Z,8.80
2018-03-06T12:36:08.546Z,8.81
2018-03-06T12:38:35.014Z,8.89
2018-03-06T12:41:01.354Z,8.86
2018-03-06T12:43:27.821Z,8.88
2018-03-06T12:45:54.297Z,8.95
2018-03-06T12:48:20.730Z,8.99
2018-03-06T12:50:47.129Z,8.96
2018-03-06T12:53:13.494Z,8.93
2018-03-06T12:55:39.850Z,8.75
2018-03-06T12:58:06.273Z,8.85
2018-03-06T13:00:32.879Z,8.97
2018-03-06T13:02:59.290Z,9.00
2018-03-06T13:05:25.747Z,9.14
2018-03-06T13:07:52.238Z,9.10
2018-03-06T13:10:18.587Z,9.13
2018-03-06T13:12:45.621Z,9.21
2018-03-06T13:15:12.022Z,9.21
2018-03-06T13:17:38.513Z,9.10
2018-03-06T13:20:04.894Z,9.04
2018-03-06T13:22:31.278Z,9.11
2018-03-06T13:24:57.795Z,9.05
2018-03-06T13:27:24.230Z,9.07
2018-03-06T13:29:50.645Z,9.19
2018-03-06T13:32:17.100Z,9.27
2018-03-06T13:34:43.481Z,9.25
2018-03-06T13:37:09.869Z,9.24
2018-03-06T13:39:36.306Z,9.35
2018-03-06T13:42:02.785Z,9.22
2018-03-06T13:44:29.134Z,9.30
2018-03-06T13:46:55.522Z,9.27
2018-03-06T13:49:22.010Z,9.33
2018-03-06T13:51:48.510Z,9.35
2018-03-06T13:54:14.885Z,9.42
2018-03-06T13:56:41.345Z,9.25
2018-03-06T13:59:07.787Z,9.23
2018-03-06T14:01:34.181Z,9.27
2018-03-06T14:04:00.557Z,9.25
2018-03-06T14:06:26.917Z,9.29
2018-03-06T14:08:53.293Z,9.27
2018-03-06T14:11:19.669Z,9.25
2018-03-06T14:13:46.083Z,9.23
2018-03-06T14:16:12.460Z,9.25
2018-03-06T14:18:38.850Z,9.30
2018-03-06T14:21:05.298Z,9.28
2018-03-06T14:23:31.663Z,9.27
2018-03-06T14:25:58.018Z,9.22
2018-03-06T14:28:24.433Z,9.28
2018-03-06T14:30:50.793Z,9.28
2018-03-06T14:33:17.297Z,9.33
2018-03-06T14:35:43.701Z,9.34
2018-03-06T14:38:10.107Z,9.34
2018-03-06T14:40:36.521Z,9.33
2018-03-06T14:43:02.918Z,9.33
2018-03-06T14:45:29.345Z,9.33
2018-03-06T14:47:55.915Z,9.34
2018-03-06T14:50:22.568Z,9.37
2018-03-06T14:52:49.060Z,9.34
2018-03-06T14:55:15.655Z,9.32
2018-03-06T14:57:42.041Z,9.38
2018-03-06T15:00:08.658Z,9.39
2018-03-06T15:02:35.258Z,9.36
2018-03-06T15:05:01.634Z,9.34
2018-03-06T15:07:28.093Z,9.36
2018-03-06T15:09:54.542Z,9.37
2018-03-06T15:12:20.910Z,9.41
2018-03-06T15:14:47.324Z,9.33
2018-03-06T15:17:13.709Z,9.32
2018-03-06T15:19:40.353Z,9.35
2018-03-06T15:22:06.701Z,9.35
2018-03-06T15:24:33.160Z,9.34
2018-03-06T15:26:59.694Z,9.39
2018-03-06T15:29:26.157Z,9.34
2018-03-06T15:31:52.517Z,9.32
2018-03-06T15:34:18.917Z,9.35
2018-03-06T15:36:45.277Z,9.38
2018-03-06T15:39:11.737Z,9.32
2018-03-06T15:41:38.183Z,9.35
2018-03-06T15:44:04.557Z,9.33
2018-03-06T15:46:31.030Z,9.37
2018-03-06T15:48:57.498Z,9.41
2018-03-06T15:51:23.958Z,9.43
2018-03-06T15:53:50.334Z,9.40
2018-03-06T15:56:16.790Z,9.36
2018-03-06T15:58:43.368Z,9.29
2018-03-06T16:01:09.767Z,9.27
2018-03-06T16:03:36.093Z,9.28
2018-03-06T16:06:02.537Z,9.27
2018-03-06T16:08:29.009Z,9.28
2018-03-06T16:10:55.369Z,9.31
2018-03-06T16:13:21.745Z,9.28
2018-03-06T16:15:48.154Z,9.35
2018-03-06T16:18:14.542Z,9.29
2018-03-06T16:20:40.920Z,9.27
2018-03-06T16:23:07.330Z,9.26
2018-03-06T16:25:33.741Z,9.26
2018-03-06T16:28:00.202Z,9.21
2018-03-06T16:30:26.671Z,9.24
2018-03-06T16:32:53.045Z,9.19
2018-03-06T16:35:19.454Z,9.15
2018-03-06T16:37:45.878Z,9.15
2018-03-06T16:40:12.284Z,9.14
2018-03-06T16:42:38.665Z,9.15
2018-03-06T16:45:05.058Z,9.18
2018-03-06T16:47:31.435Z,9.13
2018-03-06T16:49:57.816Z,9.11
2018-03-06T16:52:24.221Z,9.09
2018-03-06T16:54:50.645Z,9.11
2018-03-06T16:57:17.041Z,9.12
2018-03-06T16:59:43.429Z,9.08
2018-03-06T17:02:09.831Z,9.08
2018-03-06T17:04:36.211Z,9.08
2018-03-06T17:07:02.687Z,9.03
2018-03-06T17:09:29.290Z,9.01
2018-03-06T17:11:55.646Z,9.00
2018-03-06T17:14:22.045Z,8.98
2018-03-06T17:16:48.437Z,8.98
2018-03-06T17:19:14.813Z,8.95
2018-03-06T17:21:41.239Z,8.97
2018-03-06T17:24:07.678Z,8.97
2018-03-06T17:26:34.142Z,8.94
2018-03-06T17:29:00.788Z,8.93
2018-03-06T17:31:27.177Z,8.87
2018-03-06T17:33:53.619Z,8.91
2018-03-06T17:36:20.031Z,8.88
2018-03-06T17:38:46.357Z,8.88
2018-03-06T17:41:12.762Z,8.86
2018-03-06T17:43:39.140Z,8.84
2018-03-06T17:46:05.506Z,8.84
2018-03-06T17:48:32.041Z,8.86
2018-03-06T17:50:58.506Z,8.81
2018-03-06T17:53:24.888Z,8.79
2018-03-06T17:55:51.317Z,8.83
2018-03-06T17:58:17.693Z,8.76
2018-03-06T18:00:44.193Z,8.77
2018-03-06T18:03:10.935Z,8.75
2018-03-06T18:05:37.402Z,8.75
2018-03-06T18:08:03.887Z,8.66
2018-03-06T18:10:30.418Z,8.68
2018-03-06T18:12:56.786Z,8.72
2018-03-06T18:15:23.166Z,8.73
2018-03-06T18:17:49.557Z,8.73
2018-03-06T18:20:15.930Z,8.73
2018-03-06T18:22:42.537Z,8.74
2018-03-06T18:25:08.994Z,8.72
2018-03-06T18:27:36.198Z,8.74
2018-03-06T18:30:04.596Z,8.73
2018-03-06T18:32:30.989Z,8.68
2018-03-06T18:34:57.470Z,8.70
2018-03-06T18:37:24.025Z,8.74
2018-03-06T18:39:50.517Z,8.71
2018-03-06T18:42:16.897Z,8.71
2018-03-06T18:44:43.686Z,8.71
2018-03-06T18:47:10.254Z,8.68
2018-03-06T18:49:36.746Z,8.68
2018-03-06T18:52:03.194Z,8.65
2018-03-06T18:54:29.605Z,8.68
2018-03-06T18:56:55.986Z,8.69
2018-03-06T18:59:22.397Z,8.66
2018-03-06T19:15:12.421Z,8.68
2018-03-06T19:17:38.858Z,8.65
2018-03-06T19:20:05.301Z,8.63
2018-03-06T19:22:31.776Z,8.62
2018-03-06T19:24:58.172Z,8.62
2018-03-06T19:27:24.602Z,8.63
2018-03-06T19:29:51.045Z,8.65
2018-03-06T19:32:17.409Z,8.63
2018-03-06T19:34:43.833Z,8.62
2018-03-06T19:37:10.213Z,8.60
2018-03-06T19:39:36.789Z,8.60
2018-03-06T19:42:03.213Z,8.61
2018-03-06T19:44:29.732Z,8.61
2018-03-06T19:46:56.497Z,8.57
2018-03-06T19:49:22.992Z,8.53
2018-03-06T19:51:49.368Z,8.54
2018-03-06T19:54:15.758Z,8.51
2018-03-06T19:56:42.152Z,8.49
2018-03-06T19:59:08.601Z,8.47
2018-03-06T20:01:35.054Z,8.41
2018-03-06T20:04:01.490Z,8.45
2018-03-06T20:06:27.921Z,8.47
2018-03-06T20:08:54.418Z,8.43
2018-03-06T20:11:20.849Z,8.40
2018-03-06T20:13:47.244Z,8.37
2018-03-06T20:16:13.749Z,8.36
2018-03-06T20:18:40.236Z,8.38
2018-03-06T20:21:06.869Z,8.39
2018-03-06T20:23:33.361Z,8.43
2018-03-06T20:25:59.785Z,8.42
2018-03-06T20:28:26.280Z,8.41
2018-03-06T20:30:59.038Z,8.41
2018-03-06T20:33:25.469Z,8.40
2018-03-06T20:35:51.821Z,8.35
2018-03-06T20:38:24.238Z,8.34
2018-03-06T20:40:50.661Z,8.31
2018-03-06T20:43:17.076Z,8.31
2018-03-06T20:45:49.526Z,8.30
2018-03-06T20:48:15.932Z,8.27
2018-03-06T20:50:42.302Z,8.25
2018-03-06T20:53:14.889Z,8.24
2018-03-06T20:55:41.250Z,8.21
2018-03-06T20:58:07.682Z,8.23
2018-03-06T21:00:34.063Z,8.20
2018-03-06T21:03:00.504Z,8.19
2018-03-06T21:05:26.869Z,8.18
2018-03-06T21:07:53.353Z,8.16
2018-03-06T21:10:19.774Z,8.16
2018-03-06T21:12:46.181Z,8.11
2018-03-06T21:15:12.641Z,8.10
2018-03-06T21:17:39.072Z,8.06
2018-03-06T21:20:05.538Z,7.97
2018-03-06T21:22:31.991Z,8.00
2018-03-06T21:24:58.403Z,7.97
2018-03-06T21:27:24.858Z,7.96
2018-03-06T21:29:51.229Z,8.01
2018-03-06T21:32:17.622Z,7.98
2018-03-06T21:34:44.012Z,8.00
2018-03-06T21:37:10.386Z,7.95
2018-03-06T21:39:36.985Z,7.95
2018-03-06T21:42:03.494Z,7.95
2018-03-06T21:44:29.874Z,7.91
2018-03-06T21:46:56.297Z,7.87
2018-03-06T21:49:22.896Z,7.83
2018-03-06T21:51:49.389Z,7.82
2018-03-06T21:54:15.893Z,7.71
2018-03-06T21:56:42.266Z,7.72
2018-03-06T21:59:08.646Z,7.67
2018-03-06T22:01:34.989Z,7.68
2018-03-06T22:04:01.441Z,7.74
2018-03-06T22:06:27.839Z,7.67
2018-03-06T22:08:54.331Z,7.62
2018-03-06T22:11:20.855Z,7.64
2018-03-06T22:13:47.278Z,7.62
2018-03-06T22:16:13.665Z,7.60
2018-03-06T22:18:40.058Z,7.61
2018-03-06T22:21:06.441Z,7.60
2018-03-06T22:23:32.889Z,7.60
2018-03-06T22:25:59.369Z,7.60
2018-03-06T22:28:25.843Z,7.59
2018-03-06T22:30:52.210Z,7.62
2018-03-06T22:33:18.602Z,7.62
2018-03-06T22:35:44.962Z,7.62
2018-03-06T22:38:11.374Z,7.63
2018-03-06T22:40:37.724Z,7.61
2018-03-06T22:43:04.153Z,7.59
2018-03-06T22:45:30.621Z,7.56
2018-03-06T22:47:57.068Z,7.52
2018-03-06T22:50:23.478Z,7.56
2018-03-06T22:52:49.905Z,7.58
2018-03-06T22:55:16.293Z,7.59
2018-03-06T22:57:42.804Z,7.62
2018-03-06T23:00:09.237Z,7.65
2018-03-06T23:02:35.637Z,7.64
2018-03-06T23:05:02.103Z,7.56
2018-03-06T23:07:28.489Z,7.46
2018-03-06T23:09:54.897Z,7.32
2018-03-06T23:12:21.301Z,7.07
2018-03-06T23:14:47.679Z,7.00
2018-03-06T23:17:14.038Z,7.04
2018-03-06T23:19:40.466Z,7.11
2018-03-06T23:22:06.862Z,7.16
2018-03-06T23:24:33.294Z,7.23
2018-03-06T23:26:59.649Z,7.25
2018-03-06T23:29:26.009Z,7.28
2018-03-06T23:31:52.394Z,7.33
2018-03-06T23:34:18.753Z,7.34
2018-03-06T23:36:45.110Z,7.30
2018-03-06T23:39:11.477Z,7.33
2018-03-06T23:41:37.861Z,7.29
2018-03-06T23:44:04.226Z,7.35
2018-03-06T23:46:30.577Z,7.31
2018-03-06T23:48:56.929Z,7.33
2018-03-06T23:51:23.353Z,7.36
2018-03-06T23:53:49.721Z,7.19
2018-03-06T23:56:16.115Z,7.06
2018-03-06T23:58:42.466Z,7.03
